sensor_id;sensor_type;location;lat;lon;timestamp;P1;durP1;ratioP1;P2;durP2;ratioP2
7661;SDS011;30314;48.184;11.510;2024-01-06T00:00:31;22.37;;;12.60;;
7661;SDS011;30314;48.184;11.510;2024-01-06T00:02:58;18.07;;;11.60;;
7661;SDS011;30314;48.184;11.510;2024-01-06T00:05:25;17.13;;;11.23;;
7661;SDS011;30314;48.184;11.510;2024-01-06T00:07:51;16.67;;;11.13;;
7661;SDS011;30314;48.184;11.510;2024-01-06T00:10:18;19.57;;;12.07;;
7661;SDS011;30314;48.184;11.510;2024-01-06T00:12:44;14.50;;;9.90;;
7661;SDS011;30314;48.184;11.510;2024-01-06T00:15:11;15.40;;;10.23;;
7661;SDS011;30314;48.184;11.510;2024-01-06T00:17:38;16.70;;;11.20;;
7661;SDS011;30314;48.184;11.510;2024-01-06T00:20:05;18.70;;;10.70;;
7661;SDS011;30314;48.184;11.510;2024-01-06T00:22:32;24.30;;;11.67;;
7661;SDS011;30314;48.184;11.510;2024-01-06T00:24:59;18.83;;;12.13;;
7661;SDS011;30314;48.184;11.510;2024-01-06T00:27:26;18.40;;;11.30;;
7661;SDS011;30314;48.184;11.510;2024-01-06T00:29:52;19.17;;;11.60;;
7661;SDS011;30314;48.184;11.510;2024-01-06T00:32:19;16.63;;;11.10;;
7661;SDS011;30314;48.184;11.510;2024-01-06T00:34:45;17.13;;;11.37;;
7661;SDS011;30314;48.184;11.510;2024-01-06T00:37:13;18.60;;;11.70;;
7661;SDS011;30314;48.184;11.510;2024-01-06T00:39:40;17.33;;;11.53;;
7661;SDS011;30314;48.184;11.510;2024-01-06T00:42:06;19.00;;;12.80;;
7661;SDS011;30314;48.184;11.510;2024-01-06T00:44:35;19.60;;;11.80;;
7661;SDS011;30314;48.184;11.510;2024-01-06T00:47:02;19.47;;;12.07;;
7661;SDS011;30314;48.184;11.510;2024-01-06T00:49:29;19.40;;;11.90;;
7661;SDS011;30314;48.184;11.510;2024-01-06T00:51:56;19.30;;;12.33;;
7661;SDS011;30314;48.184;11.510;2024-01-06T00:54:23;19.30;;;12.97;;
7661;SDS011;30314;48.184;11.510;2024-01-06T00:56:50;16.90;;;10.77;;
7661;SDS011;30314;48.184;11.510;2024-01-06T00:59:16;21.20;;;13.53;;
7661;SDS011;30314;48.184;11.510;2024-01-06T01:01:43;21.97;;;12.83;;
7661;SDS011;30314;48.184;11.510;2024-01-06T01:04:09;20.23;;;12.87;;
7661;SDS011;30314;48.184;11.510;2024-01-06T01:06:36;17.27;;;10.30;;
7661;SDS011;30314;48.184;11.510;2024-01-06T01:09:03;20.87;;;12.87;;
7661;SDS011;30314;48.184;11.510;2024-01-06T01:11:30;20.30;;;12.93;;
7661;SDS011;30314;48.184;11.510;2024-01-06T01:13:57;19.17;;;12.23;;
7661;SDS011;30314;48.184;11.510;2024-01-06T01:16:24;17.10;;;11.30;;
7661;SDS011;30314;48.184;11.510;2024-01-06T01:18:50;17.13;;;10.40;;
7661;SDS011;30314;48.184;11.510;2024-01-06T01:21:17;19.23;;;12.40;;
7661;SDS011;30314;48.184;11.510;2024-01-06T01:23:44;18.70;;;11.10;;
7661;SDS011;30314;48.184;11.510;2024-01-06T01:26:10;15.73;;;10.73;;
7661;SDS011;30314;48.184;11.510;2024-01-06T01:28:37;20.57;;;12.20;;
7661;SDS011;30314;48.184;11.510;2024-01-06T01:31:03;17.63;;;11.33;;
7661;SDS011;30314;48.184;11.510;2024-01-06T01:33:31;16.07;;;11.20;;
7661;SDS011;30314;48.184;11.510;2024-01-06T01:35:57;17.80;;;10.63;;
7661;SDS011;30314;48.184;11.510;2024-01-06T01:38:28;15.97;;;8.80;;
7661;SDS011;30314;48.184;11.510;2024-01-06T01:40:54;14.67;;;9.83;;
7661;SDS011;30314;48.184;11.510;2024-01-06T01:43:21;18.90;;;11.17;;
7661;SDS011;30314;48.184;11.510;2024-01-06T01:45:55;14.13;;;9.40;;
7661;SDS011;30314;48.184;11.510;2024-01-06T01:48:23;14.50;;;9.23;;
7661;SDS011;30314;48.184;11.510;2024-01-06T01:50:52;13.97;;;8.87;;
7661;SDS011;30314;48.184;11.510;2024-01-06T01:53:19;11.53;;;8.23;;
7661;SDS011;30314;48.184;11.510;2024-01-06T01:55:47;14.57;;;8.70;;
7661;SDS011;30314;48.184;11.510;2024-01-06T01:58:14;13.67;;;9.80;;
7661;SDS011;30314;48.184;11.510;2024-01-06T02:00:42;14.90;;;9.57;;
7661;SDS011;30314;48.184;11.510;2024-01-06T02:03:09;15.90;;;10.50;;
7661;SDS011;30314;48.184;11.510;2024-01-06T02:05:37;15.53;;;9.80;;
7661;SDS011;30314;48.184;11.510;2024-01-06T02:08:04;14.20;;;9.47;;
7661;SDS011;30314;48.184;11.510;2024-01-06T02:10:31;17.40;;;10.03;;
7661;SDS011;30314;48.184;11.510;2024-01-06T02:13:06;17.00;;;10.83;;
7661;SDS011;30314;48.184;11.510;2024-01-06T02:15:34;15.17;;;9.77;;
7661;SDS011;30314;48.184;11.510;2024-01-06T02:18:01;15.90;;;10.60;;
7661;SDS011;30314;48.184;11.510;2024-01-06T02:20:28;16.20;;;10.10;;
7661;SDS011;30314;48.184;11.510;2024-01-06T02:22:56;18.00;;;9.90;;
7661;SDS011;30314;48.184;11.510;2024-01-06T02:25:25;17.37;;;9.90;;
7661;SDS011;30314;48.184;11.510;2024-01-06T02:27:51;20.83;;;11.37;;
7661;SDS011;30314;48.184;11.510;2024-01-06T02:30:18;20.10;;;11.37;;
7661;SDS011;30314;48.184;11.510;2024-01-06T02:32:44;17.90;;;11.43;;
7661;SDS011;30314;48.184;11.510;2024-01-06T02:35:11;19.50;;;12.40;;
7661;SDS011;30314;48.184;11.510;2024-01-06T02:37:38;19.33;;;11.57;;
7661;SDS011;30314;48.184;11.510;2024-01-06T02:40:05;18.37;;;12.30;;
7661;SDS011;30314;48.184;11.510;2024-01-06T02:42:32;22.90;;;12.50;;
7661;SDS011;30314;48.184;11.510;2024-01-06T02:44:59;21.33;;;12.33;;
7661;SDS011;30314;48.184;11.510;2024-01-06T02:47:25;17.23;;;10.60;;
7661;SDS011;30314;48.184;11.510;2024-01-06T02:49:52;17.07;;;9.70;;
7661;SDS011;30314;48.184;11.510;2024-01-06T02:52:18;16.10;;;9.87;;
7661;SDS011;30314;48.184;11.510;2024-01-06T02:54:45;14.13;;;9.90;;
7661;SDS011;30314;48.184;11.510;2024-01-06T02:57:12;21.73;;;10.10;;
7661;SDS011;30314;48.184;11.510;2024-01-06T02:59:39;15.37;;;9.37;;
7661;SDS011;30314;48.184;11.510;2024-01-06T03:02:06;13.07;;;8.80;;
7661;SDS011;30314;48.184;11.510;2024-01-06T03:04:33;14.53;;;9.17;;
7661;SDS011;30314;48.184;11.510;2024-01-06T03:07:00;16.80;;;10.60;;
7661;SDS011;30314;48.184;11.510;2024-01-06T03:09:26;13.43;;;8.20;;
7661;SDS011;30314;48.184;11.510;2024-01-06T03:11:53;7.83;;;5.83;;
7661;SDS011;30314;48.184;11.510;2024-01-06T03:14:19;12.17;;;6.90;;
7661;SDS011;30314;48.184;11.510;2024-01-06T03:16:46;7.73;;;5.60;;
7661;SDS011;30314;48.184;11.510;2024-01-06T03:19:12;10.60;;;6.73;;
7661;SDS011;30314;48.184;11.510;2024-01-06T03:21:39;10.27;;;6.80;;
7661;SDS011;30314;48.184;11.510;2024-01-06T03:24:06;11.20;;;7.80;;
7661;SDS011;30314;48.184;11.510;2024-01-06T03:26:34;11.30;;;7.37;;
7661;SDS011;30314;48.184;11.510;2024-01-06T03:29:00;9.73;;;6.97;;
7661;SDS011;30314;48.184;11.510;2024-01-06T03:31:31;9.03;;;6.43;;
7661;SDS011;30314;48.184;11.510;2024-01-06T03:33:58;12.63;;;7.03;;
7661;SDS011;30314;48.184;11.510;2024-01-06T03:36:25;11.00;;;7.37;;
7661;SDS011;30314;48.184;11.510;2024-01-06T03:38:52;11.03;;;6.87;;
7661;SDS011;30314;48.184;11.510;2024-01-06T03:41:18;10.17;;;5.50;;
7661;SDS011;30314;48.184;11.510;2024-01-06T03:43:45;8.60;;;6.00;;
7661;SDS011;30314;48.184;11.510;2024-01-06T03:46:11;8.80;;;5.97;;
7661;SDS011;30314;48.184;11.510;2024-01-06T03:48:38;10.10;;;7.23;;
7661;SDS011;30314;48.184;11.510;2024-01-06T03:51:06;7.90;;;5.43;;
7661;SDS011;30314;48.184;11.510;2024-01-06T03:53:32;7.93;;;5.43;;
7661;SDS011;30314;48.184;11.510;2024-01-06T03:55:59;8.70;;;5.50;;
7661;SDS011;30314;48.184;11.510;2024-01-06T03:58:26;6.60;;;4.20;;
7661;SDS011;30314;48.184;11.510;2024-01-06T04:00:52;7.43;;;4.67;;
7661;SDS011;30314;48.184;11.510;2024-01-06T04:03:19;3.57;;;2.77;;
7661;SDS011;30314;48.184;11.510;2024-01-06T04:05:45;3.13;;;2.00;;
7661;SDS011;30314;48.184;11.510;2024-01-06T04:08:12;3.20;;;1.63;;
7661;SDS011;30314;48.184;11.510;2024-01-06T04:10:39;2.53;;;1.20;;
7661;SDS011;30314;48.184;11.510;2024-01-06T04:13:07;2.73;;;1.70;;
7661;SDS011;30314;48.184;11.510;2024-01-06T04:15:34;1.53;;;1.17;;
7661;SDS011;30314;48.184;11.510;2024-01-06T04:18:04;1.57;;;0.93;;
7661;SDS011;30314;48.184;11.510;2024-01-06T04:20:32;1.53;;;1.00;;
7661;SDS011;30314;48.184;11.510;2024-01-06T04:22:59;2.70;;;1.20;;
7661;SDS011;30314;48.184;11.510;2024-01-06T04:25:25;1.10;;;0.87;;
7661;SDS011;30314;48.184;11.510;2024-01-06T04:27:52;2.87;;;1.40;;
7661;SDS011;30314;48.184;11.510;2024-01-06T04:30:18;1.20;;;0.93;;
7661;SDS011;30314;48.184;11.510;2024-01-06T04:32:47;1.23;;;0.90;;
7661;SDS011;30314;48.184;11.510;2024-01-06T04:35:16;1.17;;;0.83;;
7661;SDS011;30314;48.184;11.510;2024-01-06T04:37:43;3.70;;;0.70;;
7661;SDS011;30314;48.184;11.510;2024-01-06T04:40:10;1.17;;;0.40;;
7661;SDS011;30314;48.184;11.510;2024-01-06T04:42:37;2.27;;;0.73;;
7661;SDS011;30314;48.184;11.510;2024-01-06T04:45:04;1.30;;;0.77;;
7661;SDS011;30314;48.184;11.510;2024-01-06T04:47:32;1.37;;;0.70;;
7661;SDS011;30314;48.184;11.510;2024-01-06T04:49:58;1.50;;;0.60;;
7661;SDS011;30314;48.184;11.510;2024-01-06T04:52:25;0.90;;;0.50;;
7661;SDS011;30314;48.184;11.510;2024-01-06T04:54:52;1.10;;;0.70;;
7661;SDS011;30314;48.184;11.510;2024-01-06T04:57:18;1.60;;;0.93;;
7661;SDS011;30314;48.184;11.510;2024-01-06T04:59:47;1.60;;;0.97;;
7661;SDS011;30314;48.184;11.510;2024-01-06T05:02:13;2.80;;;1.00;;
7661;SDS011;30314;48.184;11.510;2024-01-06T05:04:40;1.80;;;1.00;;
7661;SDS011;30314;48.184;11.510;2024-01-06T05:07:07;3.50;;;1.17;;
7661;SDS011;30314;48.184;11.510;2024-01-06T05:09:33;2.07;;;1.20;;
7661;SDS011;30314;48.184;11.510;2024-01-06T05:12:00;1.40;;;0.70;;
7661;SDS011;30314;48.184;11.510;2024-01-06T05:14:26;1.57;;;0.90;;
7661;SDS011;30314;48.184;11.510;2024-01-06T05:16:53;1.00;;;0.50;;
7661;SDS011;30314;48.184;11.510;2024-01-06T05:19:20;1.47;;;0.60;;
7661;SDS011;30314;48.184;11.510;2024-01-06T05:21:48;1.30;;;0.40;;
7661;SDS011;30314;48.184;11.510;2024-01-06T05:24:15;1.00;;;0.60;;
7661;SDS011;30314;48.184;11.510;2024-01-06T05:26:42;1.57;;;0.40;;
7661;SDS011;30314;48.184;11.510;2024-01-06T05:29:08;1.37;;;0.43;;
7661;SDS011;30314;48.184;11.510;2024-01-06T05:31:35;0.80;;;0.40;;
7661;SDS011;30314;48.184;11.510;2024-01-06T05:34:01;1.23;;;0.70;;
7661;SDS011;30314;48.184;11.510;2024-01-06T05:36:28;1.10;;;0.50;;
7661;SDS011;30314;48.184;11.510;2024-01-06T05:38:55;1.10;;;0.60;;
7661;SDS011;30314;48.184;11.510;2024-01-06T05:41:21;2.37;;;1.13;;
7661;SDS011;30314;48.184;11.510;2024-01-06T05:43:48;2.73;;;1.33;;
7661;SDS011;30314;48.184;11.510;2024-01-06T05:46:21;3.07;;;1.67;;
7661;SDS011;30314;48.184;11.510;2024-01-06T05:48:49;3.50;;;1.47;;
7661;SDS011;30314;48.184;11.510;2024-01-06T05:51:15;2.50;;;1.43;;
7661;SDS011;30314;48.184;11.510;2024-01-06T05:53:42;2.10;;;1.30;;
7661;SDS011;30314;48.184;11.510;2024-01-06T05:56:09;3.57;;;1.63;;
7661;SDS011;30314;48.184;11.510;2024-01-06T05:58:36;2.73;;;1.57;;
7661;SDS011;30314;48.184;11.510;2024-01-06T06:01:02;3.20;;;1.70;;
7661;SDS011;30314;48.184;11.510;2024-01-06T06:03:30;4.27;;;2.47;;
7661;SDS011;30314;48.184;11.510;2024-01-06T06:05:56;3.20;;;1.57;;
7661;SDS011;30314;48.184;11.510;2024-01-06T06:08:23;3.70;;;1.67;;
7661;SDS011;30314;48.184;11.510;2024-01-06T06:10:49;6.67;;;2.13;;
7661;SDS011;30314;48.184;11.510;2024-01-06T06:13:31;4.20;;;2.27;;
7661;SDS011;30314;48.184;11.510;2024-01-06T06:15:57;3.27;;;2.00;;
7661;SDS011;30314;48.184;11.510;2024-01-06T06:18:24;3.60;;;2.00;;
7661;SDS011;30314;48.184;11.510;2024-01-06T06:20:51;2.40;;;1.40;;
7661;SDS011;30314;48.184;11.510;2024-01-06T06:23:17;4.83;;;2.37;;
7661;SDS011;30314;48.184;11.510;2024-01-06T06:25:44;2.80;;;1.83;;
7661;SDS011;30314;48.184;11.510;2024-01-06T06:28:10;1.87;;;1.23;;
7661;SDS011;30314;48.184;11.510;2024-01-06T06:30:37;4.47;;;1.80;;
7661;SDS011;30314;48.184;11.510;2024-01-06T06:33:04;2.20;;;1.60;;
7661;SDS011;30314;48.184;11.510;2024-01-06T06:35:31;2.57;;;1.73;;
7661;SDS011;30314;48.184;11.510;2024-01-06T06:37:57;2.53;;;1.50;;
7661;SDS011;30314;48.184;11.510;2024-01-06T06:40:24;1.97;;;1.50;;
7661;SDS011;30314;48.184;11.510;2024-01-06T06:42:51;1.67;;;1.40;;
7661;SDS011;30314;48.184;11.510;2024-01-06T06:45:17;3.93;;;1.40;;
7661;SDS011;30314;48.184;11.510;2024-01-06T06:47:47;3.27;;;1.73;;
7661;SDS011;30314;48.184;11.510;2024-01-06T06:50:15;4.87;;;1.37;;
7661;SDS011;30314;48.184;11.510;2024-01-06T06:52:44;4.43;;;1.33;;
7661;SDS011;30314;48.184;11.510;2024-01-06T06:55:10;2.70;;;1.47;;
7661;SDS011;30314;48.184;11.510;2024-01-06T06:57:38;2.60;;;1.67;;
7661;SDS011;30314;48.184;11.510;2024-01-06T07:00:05;7.97;;;1.40;;
7661;SDS011;30314;48.184;11.510;2024-01-06T07:02:33;2.90;;;1.80;;
7661;SDS011;30314;48.184;11.510;2024-01-06T07:05:00;2.40;;;1.50;;
7661;SDS011;30314;48.184;11.510;2024-01-06T07:07:27;4.33;;;1.67;;
7661;SDS011;30314;48.184;11.510;2024-01-06T07:09:53;3.10;;;1.33;;
7661;SDS011;30314;48.184;11.510;2024-01-06T07:12:20;3.00;;;1.47;;
7661;SDS011;30314;48.184;11.510;2024-01-06T07:14:47;1.73;;;1.30;;
7661;SDS011;30314;48.184;11.510;2024-01-06T07:17:13;2.97;;;1.50;;
7661;SDS011;30314;48.184;11.510;2024-01-06T07:19:40;2.70;;;1.53;;
7661;SDS011;30314;48.184;11.510;2024-01-06T07:22:06;5.30;;;1.80;;
7661;SDS011;30314;48.184;11.510;2024-01-06T07:24:33;4.00;;;1.60;;
7661;SDS011;30314;48.184;11.510;2024-01-06T07:27:00;3.83;;;2.20;;
7661;SDS011;30314;48.184;11.510;2024-01-06T07:29:27;2.20;;;1.70;;
7661;SDS011;30314;48.184;11.510;2024-01-06T07:31:53;3.20;;;1.40;;
7661;SDS011;30314;48.184;11.510;2024-01-06T07:34:20;6.87;;;2.57;;
7661;SDS011;30314;48.184;11.510;2024-01-06T07:36:47;5.27;;;2.00;;
7661;SDS011;30314;48.184;11.510;2024-01-06T07:39:13;4.03;;;2.20;;
7661;SDS011;30314;48.184;11.510;2024-01-06T07:41:40;5.30;;;3.13;;
7661;SDS011;30314;48.184;11.510;2024-01-06T07:44:06;6.63;;;3.13;;
7661;SDS011;30314;48.184;11.510;2024-01-06T07:46:33;4.90;;;3.20;;
7661;SDS011;30314;48.184;11.510;2024-01-06T07:49:01;4.80;;;3.00;;
7661;SDS011;30314;48.184;11.510;2024-01-06T07:51:28;4.53;;;2.87;;
7661;SDS011;30314;48.184;11.510;2024-01-06T07:53:54;6.10;;;3.10;;
7661;SDS011;30314;48.184;11.510;2024-01-06T07:56:21;6.33;;;2.70;;
7661;SDS011;30314;48.184;11.510;2024-01-06T07:58:48;4.87;;;2.77;;
7661;SDS011;30314;48.184;11.510;2024-01-06T08:01:14;5.70;;;2.47;;
7661;SDS011;30314;48.184;11.510;2024-01-06T08:03:41;5.27;;;2.20;;
7661;SDS011;30314;48.184;11.510;2024-01-06T08:06:08;2.90;;;1.67;;
7661;SDS011;30314;48.184;11.510;2024-01-06T08:08:34;3.63;;;2.10;;
7661;SDS011;30314;48.184;11.510;2024-01-06T08:11:02;3.47;;;1.70;;
7661;SDS011;30314;48.184;11.510;2024-01-06T08:13:28;3.50;;;1.90;;
7661;SDS011;30314;48.184;11.510;2024-01-06T08:15:55;3.10;;;1.90;;
7661;SDS011;30314;48.184;11.510;2024-01-06T08:18:21;3.40;;;1.43;;
7661;SDS011;30314;48.184;11.510;2024-01-06T08:20:48;8.00;;;1.53;;
7661;SDS011;30314;48.184;11.510;2024-01-06T08:23:15;4.20;;;1.93;;
7661;SDS011;30314;48.184;11.510;2024-01-06T08:25:44;4.10;;;2.17;;
7661;SDS011;30314;48.184;11.510;2024-01-06T08:28:13;2.30;;;1.70;;
7661;SDS011;30314;48.184;11.510;2024-01-06T08:30:41;1.63;;;1.17;;
7661;SDS011;30314;48.184;11.510;2024-01-06T08:33:07;6.20;;;1.57;;
7661;SDS011;30314;48.184;11.510;2024-01-06T08:35:34;5.13;;;1.47;;
7661;SDS011;30314;48.184;11.510;2024-01-06T08:38:06;6.90;;;1.50;;
7661;SDS011;30314;48.184;11.510;2024-01-06T08:40:34;5.17;;;1.77;;
7661;SDS011;30314;48.184;11.510;2024-01-06T08:43:01;5.77;;;1.80;;
7661;SDS011;30314;48.184;11.510;2024-01-06T08:45:29;8.83;;;2.30;;
7661;SDS011;30314;48.184;11.510;2024-01-06T08:47:56;6.90;;;2.83;;
7661;SDS011;30314;48.184;11.510;2024-01-06T08:50:23;4.83;;;1.47;;
7661;SDS011;30314;48.184;11.510;2024-01-06T08:52:49;4.87;;;2.00;;
7661;SDS011;30314;48.184;11.510;2024-01-06T08:55:16;3.63;;;1.50;;
7661;SDS011;30314;48.184;11.510;2024-01-06T08:57:43;5.87;;;2.00;;
7661;SDS011;30314;48.184;11.510;2024-01-06T09:00:09;6.80;;;3.27;;
7661;SDS011;30314;48.184;11.510;2024-01-06T09:02:37;8.87;;;3.20;;
7661;SDS011;30314;48.184;11.510;2024-01-06T09:05:04;6.23;;;3.00;;
7661;SDS011;30314;48.184;11.510;2024-01-06T09:07:31;4.77;;;2.40;;
7661;SDS011;30314;48.184;11.510;2024-01-06T09:09:58;3.20;;;1.47;;
7661;SDS011;30314;48.184;11.510;2024-01-06T09:12:25;5.83;;;2.83;;
7661;SDS011;30314;48.184;11.510;2024-01-06T09:14:52;6.63;;;2.73;;
7661;SDS011;30314;48.184;11.510;2024-01-06T09:17:19;8.13;;;2.60;;
7661;SDS011;30314;48.184;11.510;2024-01-06T09:19:45;5.83;;;2.60;;
7661;SDS011;30314;48.184;11.510;2024-01-06T09:22:12;6.03;;;2.70;;
7661;SDS011;30314;48.184;11.510;2024-01-06T09:24:39;4.17;;;2.23;;
7661;SDS011;30314;48.184;11.510;2024-01-06T09:27:06;3.20;;;1.90;;
7661;SDS011;30314;48.184;11.510;2024-01-06T09:29:32;2.20;;;1.77;;
7661;SDS011;30314;48.184;11.510;2024-01-06T09:32:00;6.60;;;2.27;;
7661;SDS011;30314;48.184;11.510;2024-01-06T09:34:26;4.77;;;2.50;;
7661;SDS011;30314;48.184;11.510;2024-01-06T09:36:53;6.10;;;2.77;;
7661;SDS011;30314;48.184;11.510;2024-01-06T09:39:19;4.70;;;1.97;;
7661;SDS011;30314;48.184;11.510;2024-01-06T09:41:46;7.97;;;2.63;;
7661;SDS011;30314;48.184;11.510;2024-01-06T09:44:13;7.67;;;2.20;;
7661;SDS011;30314;48.184;11.510;2024-01-06T09:46:42;10.53;;;2.20;;
7661;SDS011;30314;48.184;11.510;2024-01-06T09:49:10;5.30;;;2.20;;
7661;SDS011;30314;48.184;11.510;2024-01-06T09:51:37;4.20;;;2.53;;
7661;SDS011;30314;48.184;11.510;2024-01-06T09:54:08;6.87;;;2.60;;
7661;SDS011;30314;48.184;11.510;2024-01-06T09:56:36;10.50;;;4.07;;
7661;SDS011;30314;48.184;11.510;2024-01-06T09:59:04;6.13;;;2.73;;
7661;SDS011;30314;48.184;11.510;2024-01-06T10:01:31;4.00;;;2.50;;
7661;SDS011;30314;48.184;11.510;2024-01-06T10:03:58;4.90;;;2.80;;
7661;SDS011;30314;48.184;11.510;2024-01-06T10:06:24;5.20;;;2.40;;
7661;SDS011;30314;48.184;11.510;2024-01-06T10:08:52;5.73;;;2.53;;
7661;SDS011;30314;48.184;11.510;2024-01-06T10:11:19;5.33;;;3.40;;
7661;SDS011;30314;48.184;11.510;2024-01-06T10:13:49;5.10;;;2.93;;
7661;SDS011;30314;48.184;11.510;2024-01-06T10:16:18;8.30;;;4.63;;
7661;SDS011;30314;48.184;11.510;2024-01-06T10:18:45;9.10;;;3.70;;
7661;SDS011;30314;48.184;11.510;2024-01-06T10:21:17;11.33;;;3.97;;
7661;SDS011;30314;48.184;11.510;2024-01-06T10:23:47;6.87;;;3.70;;
7661;SDS011;30314;48.184;11.510;2024-01-06T10:26:17;4.93;;;2.67;;
7661;SDS011;30314;48.184;11.510;2024-01-06T10:28:44;5.33;;;3.00;;
7661;SDS011;30314;48.184;11.510;2024-01-06T10:31:11;6.10;;;3.70;;
7661;SDS011;30314;48.184;11.510;2024-01-06T10:33:38;8.53;;;3.20;;
7661;SDS011;30314;48.184;11.510;2024-01-06T10:36:06;4.20;;;1.80;;
7661;SDS011;30314;48.184;11.510;2024-01-06T10:38:35;7.37;;;3.00;;
7661;SDS011;30314;48.184;11.510;2024-01-06T10:41:05;6.33;;;2.90;;
7661;SDS011;30314;48.184;11.510;2024-01-06T10:43:36;6.10;;;2.60;;
7661;SDS011;30314;48.184;11.510;2024-01-06T10:46:07;4.23;;;2.30;;
7661;SDS011;30314;48.184;11.510;2024-01-06T10:48:37;5.30;;;3.30;;
7661;SDS011;30314;48.184;11.510;2024-01-06T10:51:09;6.60;;;2.80;;
7661;SDS011;30314;48.184;11.510;2024-01-06T10:53:37;4.83;;;2.97;;
7661;SDS011;30314;48.184;11.510;2024-01-06T10:56:07;6.17;;;2.80;;
7661;SDS011;30314;48.184;11.510;2024-01-06T10:58:34;7.87;;;3.33;;
7661;SDS011;30314;48.184;11.510;2024-01-06T11:01:09;5.30;;;3.20;;
7661;SDS011;30314;48.184;11.510;2024-01-06T11:03:37;7.23;;;3.20;;
7661;SDS011;30314;48.184;11.510;2024-01-06T11:06:06;6.87;;;3.30;;
7661;SDS011;30314;48.184;11.510;2024-01-06T11:08:35;6.53;;;3.70;;
7661;SDS011;30314;48.184;11.510;2024-01-06T11:11:18;7.40;;;3.60;;
7661;SDS011;30314;48.184;11.510;2024-01-06T11:13:46;10.67;;;4.30;;
7661;SDS011;30314;48.184;11.510;2024-01-06T11:19:00;9.90;;;6.00;;
7661;SDS011;30314;48.184;11.510;2024-01-06T11:21:33;15.10;;;4.07;;
7661;SDS011;30314;48.184;11.510;2024-01-06T11:26:34;7.83;;;3.87;;
7661;SDS011;30314;48.184;11.510;2024-01-06T11:29:01;8.20;;;4.10;;
7661;SDS011;30314;48.184;11.510;2024-01-06T11:31:28;8.67;;;3.70;;
7661;SDS011;30314;48.184;11.510;2024-01-06T11:33:57;9.07;;;4.43;;
7661;SDS011;30314;48.184;11.510;2024-01-06T11:36:39;10.63;;;4.57;;
7661;SDS011;30314;48.184;11.510;2024-01-06T11:39:05;8.50;;;4.70;;
7661;SDS011;30314;48.184;11.510;2024-01-06T11:41:47;8.73;;;4.13;;
7661;SDS011;30314;48.184;11.510;2024-01-06T11:44:22;6.93;;;3.87;;
7661;SDS011;30314;48.184;11.510;2024-01-06T11:46:49;5.00;;;3.50;;
7661;SDS011;30314;48.184;11.510;2024-01-06T11:49:19;7.20;;;3.90;;
7661;SDS011;30314;48.184;11.510;2024-01-06T11:51:48;11.00;;;4.73;;
7661;SDS011;30314;48.184;11.510;2024-01-06T11:54:15;8.43;;;3.83;;
7661;SDS011;30314;48.184;11.510;2024-01-06T11:56:43;18.13;;;4.00;;
7661;SDS011;30314;48.184;11.510;2024-01-06T11:59:09;7.33;;;3.67;;
7661;SDS011;30314;48.184;11.510;2024-01-06T12:01:39;6.47;;;3.70;;
7661;SDS011;30314;48.184;11.510;2024-01-06T12:04:06;10.27;;;3.73;;
7661;SDS011;30314;48.184;11.510;2024-01-06T12:06:33;9.33;;;3.93;;
7661;SDS011;30314;48.184;11.510;2024-01-06T12:09:07;6.27;;;3.83;;
7661;SDS011;30314;48.184;11.510;2024-01-06T12:11:36;5.77;;;4.43;;
7661;SDS011;30314;48.184;11.510;2024-01-06T12:14:04;8.40;;;4.00;;
7661;SDS011;30314;48.184;11.510;2024-01-06T12:16:31;6.00;;;3.10;;
7661;SDS011;30314;48.184;11.510;2024-01-06T12:18:59;6.80;;;3.73;;
7661;SDS011;30314;48.184;11.510;2024-01-06T12:21:27;5.17;;;3.63;;
7661;SDS011;30314;48.184;11.510;2024-01-06T12:23:54;29.20;;;4.97;;
7661;SDS011;30314;48.184;11.510;2024-01-06T12:26:37;7.07;;;4.07;;
7661;SDS011;30314;48.184;11.510;2024-01-06T12:29:04;7.50;;;4.30;;
7661;SDS011;30314;48.184;11.510;2024-01-06T12:31:31;10.83;;;5.07;;
7661;SDS011;30314;48.184;11.510;2024-01-06T12:33:59;6.47;;;4.60;;
7661;SDS011;30314;48.184;11.510;2024-01-06T12:36:25;11.73;;;5.07;;
7661;SDS011;30314;48.184;11.510;2024-01-06T12:38:52;8.23;;;4.53;;
7661;SDS011;30314;48.184;11.510;2024-01-06T12:41:22;9.20;;;4.83;;
7661;SDS011;30314;48.184;11.510;2024-01-06T12:43:49;6.97;;;4.90;;
7661;SDS011;30314;48.184;11.510;2024-01-06T12:46:16;6.40;;;3.57;;
7661;SDS011;30314;48.184;11.510;2024-01-06T12:48:42;3.50;;;3.00;;
7661;SDS011;30314;48.184;11.510;2024-01-06T12:51:09;8.80;;;3.10;;
7661;SDS011;30314;48.184;11.510;2024-01-06T12:53:36;5.53;;;2.43;;
7661;SDS011;30314;48.184;11.510;2024-01-06T12:56:02;8.90;;;3.23;;
7661;SDS011;30314;48.184;11.510;2024-01-06T12:58:29;3.40;;;1.53;;
7661;SDS011;30314;48.184;11.510;2024-01-06T13:00:56;2.10;;;1.70;;
7661;SDS011;30314;48.184;11.510;2024-01-06T13:03:23;7.30;;;3.17;;
7661;SDS011;30314;48.184;11.510;2024-01-06T13:05:50;5.30;;;2.93;;
7661;SDS011;30314;48.184;11.510;2024-01-06T13:08:17;4.50;;;2.50;;
7661;SDS011;30314;48.184;11.510;2024-01-06T13:10:44;5.17;;;2.67;;
7661;SDS011;30314;48.184;11.510;2024-01-06T13:13:11;4.73;;;2.60;;
7661;SDS011;30314;48.184;11.510;2024-01-06T13:15:37;3.37;;;2.67;;
7661;SDS011;30314;48.184;11.510;2024-01-06T13:18:04;4.90;;;2.33;;
7661;SDS011;30314;48.184;11.510;2024-01-06T13:20:31;3.93;;;2.50;;
7661;SDS011;30314;48.184;11.510;2024-01-06T13:22:58;6.47;;;2.63;;
7661;SDS011;30314;48.184;11.510;2024-01-06T13:25:25;7.73;;;2.80;;
7661;SDS011;30314;48.184;11.510;2024-01-06T13:27:52;8.33;;;3.10;;
7661;SDS011;30314;48.184;11.510;2024-01-06T13:30:19;7.27;;;2.90;;
7661;SDS011;30314;48.184;11.510;2024-01-06T13:32:46;7.37;;;3.03;;
7661;SDS011;30314;48.184;11.510;2024-01-06T13:35:15;5.50;;;3.30;;
7661;SDS011;30314;48.184;11.510;2024-01-06T13:37:41;8.90;;;4.60;;
7661;SDS011;30314;48.184;11.510;2024-01-06T13:40:09;9.70;;;3.00;;
7661;SDS011;30314;48.184;11.510;2024-01-06T13:42:36;5.53;;;3.50;;
7661;SDS011;30314;48.184;11.510;2024-01-06T13:45:04;7.43;;;3.57;;
7661;SDS011;30314;48.184;11.510;2024-01-06T13:47:32;5.07;;;3.00;;
7661;SDS011;30314;48.184;11.510;2024-01-06T13:49:59;4.40;;;3.10;;
7661;SDS011;30314;48.184;11.510;2024-01-06T13:52:26;7.87;;;3.17;;
7661;SDS011;30314;48.184;11.510;2024-01-06T13:54:53;12.80;;;4.03;;
7661;SDS011;30314;48.184;11.510;2024-01-06T13:57:19;7.27;;;3.77;;
7661;SDS011;30314;48.184;11.510;2024-01-06T13:59:46;7.70;;;3.30;;
7661;SDS011;30314;48.184;11.510;2024-01-06T14:02:13;7.03;;;3.53;;
7661;SDS011;30314;48.184;11.510;2024-01-06T14:04:40;4.40;;;3.00;;
7661;SDS011;30314;48.184;11.510;2024-01-06T14:07:06;6.70;;;3.70;;
7661;SDS011;30314;48.184;11.510;2024-01-06T14:09:33;14.93;;;4.30;;
7661;SDS011;30314;48.184;11.510;2024-01-06T14:12:01;9.67;;;4.13;;
7661;SDS011;30314;48.184;11.510;2024-01-06T14:14:28;6.17;;;3.80;;
7661;SDS011;30314;48.184;11.510;2024-01-06T14:16:55;4.93;;;3.20;;
7661;SDS011;30314;48.184;11.510;2024-01-06T14:19:21;6.07;;;3.40;;
7661;SDS011;30314;48.184;11.510;2024-01-06T14:21:48;5.63;;;3.90;;
7661;SDS011;30314;48.184;11.510;2024-01-06T14:24:16;16.20;;;4.80;;
7661;SDS011;30314;48.184;11.510;2024-01-06T14:26:53;6.27;;;3.80;;
7661;SDS011;30314;48.184;11.510;2024-01-06T14:29:21;10.50;;;4.83;;
7661;SDS011;30314;48.184;11.510;2024-01-06T14:31:48;6.40;;;4.10;;
7661;SDS011;30314;48.184;11.510;2024-01-06T14:34:15;7.37;;;4.20;;
7661;SDS011;30314;48.184;11.510;2024-01-06T14:36:42;7.60;;;5.07;;
7661;SDS011;30314;48.184;11.510;2024-01-06T14:39:14;7.50;;;4.87;;
7661;SDS011;30314;48.184;11.510;2024-01-06T14:41:45;6.20;;;4.50;;
7661;SDS011;30314;48.184;11.510;2024-01-06T14:44:11;8.23;;;4.40;;
7661;SDS011;30314;48.184;11.510;2024-01-06T14:46:39;6.20;;;3.60;;